Main page
METAR-TAF:

METAR-TAF

Airports :

Pisa, Italy

Pisa International Airport

latitude: 43-41N, longitude: 010-23E, elevation: 2 m

Current weather observation

The report was made 35 minutes ago, at 18:45 UTC
Wind 4 kt from the South/Southwest, varying between South/Southeast and Southwest
Temperature 9°C
Humidity 87%
Pressure 1016 hPa
Visibility 10 km or more
no clouds below 1500 m and no cumulonimbus

METAR: LIRP 171845Z 20004KT 160V220 CAVOK 09/07 Q1016 NOSIG

Time: 20:20 (19:20 UTC)

Forecast

The report was made 2 hours and 20 minutes ago, at 17:00 UTC
Forecast valid from 17 at 18 UTC to 18 at 18 UTC
Wind 5 kt from the East
Visibility 10 km or more
no clouds below 1500 m and no cumulonimbus
Temporary
from 18 at 00 UTC to 18 at 07 UTC
Visibility: 5000 m
mist
Becoming
from 18 at 08 UTC to 18 at 10 UTC
Wind 6 kt from the East
Becoming
from 18 at 11 UTC to 18 at 13 UTC
Wind 10 kt from the Southeast

TAF: LIRP 171700Z 1718/1818 09005KT CAVOK TEMPO 1800/1807 5000 BR BECMG 1808/1810 10006KT BECMG 1811/1813 14010KT

Weather observations and forecasts of more than 4000 airports (METAR and TAF reports).

The available stations are represented by yellow and red dots on the map.

Hover mouse over dot to see the name of the station.

Then click to see weather observations and forecasts.

To change the map : click on the green buttons with a black cross to zoom in, on the green button with a dash to zoom out, or on the green arrows for adjacent maps.


METAR-TAF: